sensor_id;sensor_type;location;lat;lon;timestamp;pressure;altitude;pressure_sealevel;temperature;humidity
57024;BME280;42916;54.346;18.562;2023-01-29T00:01:32;100895.77;;;-0.38;86.77
57024;BME280;42916;54.346;18.562;2023-01-29T00:03:58;100901.31;;;-0.37;86.90
57024;BME280;42916;54.346;18.562;2023-01-29T00:06:25;100903.58;;;-0.34;86.94
57024;BME280;42916;54.346;18.562;2023-01-29T00:08:52;100906.48;;;-0.33;87.03
57024;BME280;42916;54.346;18.562;2023-01-29T00:11:19;100911.95;;;-0.31;87.01
57024;BME280;42916;54.346;18.562;2023-01-29T00:13:46;100913.98;;;-0.29;86.98
57024;BME280;42916;54.346;18.562;2023-01-29T00:16:13;100911.31;;;-0.26;87.02
57024;BME280;42916;54.346;18.562;2023-01-29T00:18:41;100917.91;;;-0.23;87.03
57024;BME280;42916;54.346;18.562;2023-01-29T00:21:11;100923.73;;;-0.20;87.09
57024;BME280;42916;54.346;18.562;2023-01-29T00:23:38;100925.83;;;-0.18;86.99
57024;BME280;42916;54.346;18.562;2023-01-29T00:26:05;100923.11;;;-0.16;87.03
57024;BME280;42916;54.346;18.562;2023-01-29T00:28:33;100921.91;;;-0.17;87.17
57024;BME280;42916;54.346;18.562;2023-01-29T00:31:07;100926.92;;;-0.17;87.19
57024;BME280;42916;54.346;18.562;2023-01-29T00:33:35;100925.48;;;-0.17;87.17
57024;BME280;42916;54.346;18.562;2023-01-29T00:36:06;100924.77;;;-0.15;87.16
57024;BME280;42916;54.346;18.562;2023-01-29T00:38:34;100932.27;;;-0.14;87.39
57024;BME280;42916;54.346;18.562;2023-01-29T00:41:09;100928.05;;;-0.13;87.64
57024;BME280;42916;54.346;18.562;2023-01-29T00:43:56;100929.25;;;-0.14;87.93
57024;BME280;42916;54.346;18.562;2023-01-29T00:46:42;100928.48;;;-0.15;87.98
57024;BME280;42916;54.346;18.562;2023-01-29T00:49:09;100928.45;;;-0.16;88.26
57024;BME280;42916;54.346;18.562;2023-01-29T00:51:37;100935.73;;;-0.16;88.88
57024;BME280;42916;54.346;18.562;2023-01-29T00:54:05;100940.98;;;-0.15;89.17
57024;BME280;42916;54.346;18.562;2023-01-29T00:56:36;100941.42;;;-0.14;88.99
57024;BME280;42916;54.346;18.562;2023-01-29T00:59:03;100946.17;;;-0.14;89.19
57024;BME280;42916;54.346;18.562;2023-01-29T01:01:30;100948.33;;;-0.14;89.52
57024;BME280;42916;54.346;18.562;2023-01-29T01:04:16;100939.86;;;-0.15;90.01
57024;BME280;42916;54.346;18.562;2023-01-29T01:06:42;100940.86;;;-0.16;90.38
57024;BME280;42916;54.346;18.562;2023-01-29T01:09:10;100936.77;;;-0.16;90.64
57024;BME280;42916;54.346;18.562;2023-01-29T01:11:55;100944.92;;;-0.16;90.85
57024;BME280;42916;54.346;18.562;2023-01-29T01:14:22;100938.67;;;-0.15;91.54
57024;BME280;42916;54.346;18.562;2023-01-29T01:16:49;100943.16;;;-0.17;92.01
57024;BME280;42916;54.346;18.562;2023-01-29T01:19:16;100948.89;;;-0.19;92.73
57024;BME280;42916;54.346;18.562;2023-01-29T01:21:43;100938.19;;;-0.22;93.30
57024;BME280;42916;54.346;18.562;2023-01-29T01:24:12;100929.59;;;-0.25;93.38
57024;BME280;42916;54.346;18.562;2023-01-29T01:26:39;100932.81;;;-0.27;93.87
57024;BME280;42916;54.346;18.562;2023-01-29T01:29:06;100938.75;;;-0.27;94.15
57024;BME280;42916;54.346;18.562;2023-01-29T01:31:33;100938.98;;;-0.29;94.91
57024;BME280;42916;54.346;18.562;2023-01-29T01:34:00;100934.20;;;-0.31;94.98
57024;BME280;42916;54.346;18.562;2023-01-29T01:36:27;100927.60;;;-0.33;95.20
57024;BME280;42916;54.346;18.562;2023-01-29T01:38:54;100926.00;;;-0.33;95.26
57024;BME280;42916;54.346;18.562;2023-01-29T01:41:21;100919.28;;;-0.33;95.45
57024;BME280;42916;54.346;18.562;2023-01-29T01:43:57;100911.56;;;-0.33;95.76
57024;BME280;42916;54.346;18.562;2023-01-29T01:46:28;100902.02;;;-0.33;96.10
57024;BME280;42916;54.346;18.562;2023-01-29T01:49:00;100892.91;;;-0.35;96.49
57024;BME280;42916;54.346;18.562;2023-01-29T01:51:31;100891.73;;;-0.39;96.69
57024;BME280;42916;54.346;18.562;2023-01-29T01:54:13;100891.23;;;-0.41;97.00
57024;BME280;42916;54.346;18.562;2023-01-29T01:56:44;100880.61;;;-0.43;97.09
57024;BME280;42916;54.346;18.562;2023-01-29T01:59:16;100883.66;;;-0.42;97.38
57024;BME280;42916;54.346;18.562;2023-01-29T02:01:46;100882.71;;;-0.41;97.48
57024;BME280;42916;54.346;18.562;2023-01-29T02:04:22;100877.02;;;-0.40;97.41
57024;BME280;42916;54.346;18.562;2023-01-29T02:07:13;100869.81;;;-0.39;97.69
57024;BME280;42916;54.346;18.562;2023-01-29T02:10:04;100859.89;;;-0.39;97.90
57024;BME280;42916;54.346;18.562;2023-01-29T02:12:35;100859.71;;;-0.39;98.26
57024;BME280;42916;54.346;18.562;2023-01-29T02:15:03;100858.02;;;-0.40;98.43
57024;BME280;42916;54.346;18.562;2023-01-29T02:17:30;100855.45;;;-0.40;98.35
57024;BME280;42916;54.346;18.562;2023-01-29T02:20:16;100843.48;;;-0.37;98.51
57024;BME280;42916;54.346;18.562;2023-01-29T02:36:14;100814.03;;;-0.27;99.58
57024;BME280;42916;54.346;18.562;2023-01-29T02:39:03;100806.44;;;-0.27;99.72
57024;BME280;42916;54.346;18.562;2023-01-29T02:44:37;100802.42;;;-0.26;100.00
57024;BME280;42916;54.346;18.562;2023-01-29T02:47:19;100809.62;;;-0.25;100.00
57024;BME280;42916;54.346;18.562;2023-01-29T02:50:07;100810.48;;;-0.26;100.00
57024;BME280;42916;54.346;18.562;2023-01-29T02:52:56;100811.69;;;-0.26;100.00
57024;BME280;42916;54.346;18.562;2023-01-29T02:55:39;100815.29;;;-0.26;100.00
57024;BME280;42916;54.346;18.562;2023-01-29T02:58:16;100815.92;;;-0.24;100.00
57024;BME280;42916;54.346;18.562;2023-01-29T03:00:48;100817.73;;;-0.21;100.00
57024;BME280;42916;54.346;18.562;2023-01-29T03:03:19;100819.52;;;-0.16;100.00
57024;BME280;42916;54.346;18.562;2023-01-29T03:06:17;100814.10;;;-0.14;100.00
57024;BME280;42916;54.346;18.562;2023-01-29T03:11:28;100821.96;;;-0.10;100.00
57024;BME280;42916;54.346;18.562;2023-01-29T03:14:02;100827.64;;;-0.08;100.00
57024;BME280;42916;54.346;18.562;2023-01-29T03:16:39;100829.99;;;-0.05;100.00
57024;BME280;42916;54.346;18.562;2023-01-29T03:19:11;100831.98;;;-0.02;100.00
57024;BME280;42916;54.346;18.562;2023-01-29T03:21:52;100828.13;;;0.01;100.00
57024;BME280;42916;54.346;18.562;2023-01-29T03:24:49;100819.21;;;0.01;100.00
57024;BME280;42916;54.346;18.562;2023-01-29T03:27:52;100808.71;;;0.01;100.00
57024;BME280;42916;54.346;18.562;2023-01-29T03:30:52;100798.04;;;0.00;100.00
57024;BME280;42916;54.346;18.562;2023-01-29T03:33:50;100799.52;;;0.02;100.00
57024;BME280;42916;54.346;18.562;2023-01-29T03:36:36;100791.79;;;0.04;100.00
57024;BME280;42916;54.346;18.562;2023-01-29T03:39:12;100787.63;;;0.04;100.00
57024;BME280;42916;54.346;18.562;2023-01-29T03:52:30;100777.59;;;0.06;100.00
57024;BME280;42916;54.346;18.562;2023-01-29T03:57:45;100775.45;;;0.11;100.00
57024;BME280;42916;54.346;18.562;2023-01-29T04:00:21;100766.71;;;0.11;100.00
57024;BME280;42916;54.346;18.562;2023-01-29T04:03:48;100752.20;;;0.11;100.00
57024;BME280;42916;54.346;18.562;2023-01-29T04:05:53;100748.25;;;0.11;100.00
57024;BME280;42916;54.346;18.562;2023-01-29T04:08:31;100750.39;;;0.11;100.00
57024;BME280;42916;54.346;18.562;2023-01-29T04:11:13;100749.77;;;0.11;100.00
57024;BME280;42916;54.346;18.562;2023-01-29T04:13:42;100742.89;;;0.13;100.00
57024;BME280;42916;54.346;18.562;2023-01-29T04:16:24;100740.07;;;0.14;100.00
57024;BME280;42916;54.346;18.562;2023-01-29T04:19:08;100743.92;;;0.13;100.00
57024;BME280;42916;54.346;18.562;2023-01-29T04:21:39;100741.86;;;0.13;100.00
57024;BME280;42916;54.346;18.562;2023-01-29T04:24:07;100741.21;;;0.12;100.00
57024;BME280;42916;54.346;18.562;2023-01-29T04:26:54;100740.30;;;0.12;100.00
57024;BME280;42916;54.346;18.562;2023-01-29T04:36:16;100718.28;;;0.17;100.00
57024;BME280;42916;54.346;18.562;2023-01-29T04:41:21;100717.21;;;0.17;100.00
57024;BME280;42916;54.346;18.562;2023-01-29T04:44:01;100717.01;;;0.18;100.00
57024;BME280;42916;54.346;18.562;2023-01-29T04:51:52;100713.65;;;0.24;100.00
57024;BME280;42916;54.346;18.562;2023-01-29T04:59:46;100710.25;;;0.30;100.00
57024;BME280;42916;54.346;18.562;2023-01-29T05:02:13;100700.35;;;0.31;100.00
57024;BME280;42916;54.346;18.562;2023-01-29T05:04:42;100692.74;;;0.31;100.00
57024;BME280;42916;54.346;18.562;2023-01-29T05:07:13;100679.52;;;0.33;100.00
57024;BME280;42916;54.346;18.562;2023-01-29T05:09:42;100672.89;;;0.35;100.00
57024;BME280;42916;54.346;18.562;2023-01-29T05:12:13;100667.30;;;0.39;100.00
57024;BME280;42916;54.346;18.562;2023-01-29T05:14:43;100675.34;;;0.42;100.00
57024;BME280;42916;54.346;18.562;2023-01-29T05:17:19;100673.71;;;0.42;100.00
57024;BME280;42916;54.346;18.562;2023-01-29T05:19:46;100667.26;;;0.42;100.00
57024;BME280;42916;54.346;18.562;2023-01-29T05:22:15;100664.11;;;0.41;100.00
57024;BME280;42916;54.346;18.562;2023-01-29T05:24:43;100667.25;;;0.42;100.00
57024;BME280;42916;54.346;18.562;2023-01-29T05:27:17;100670.66;;;0.42;100.00
57024;BME280;42916;54.346;18.562;2023-01-29T05:30:04;100672.36;;;0.44;100.00
57024;BME280;42916;54.346;18.562;2023-01-29T05:32:31;100669.61;;;0.45;100.00
57024;BME280;42916;54.346;18.562;2023-01-29T05:34:58;100666.49;;;0.45;100.00
57024;BME280;42916;54.346;18.562;2023-01-29T05:37:25;100664.55;;;0.45;100.00
57024;BME280;42916;54.346;18.562;2023-01-29T05:39:52;100660.65;;;0.44;100.00
57024;BME280;42916;54.346;18.562;2023-01-29T05:42:19;100657.48;;;0.40;100.00
57024;BME280;42916;54.346;18.562;2023-01-29T05:44:45;100658.02;;;0.39;100.00
57024;BME280;42916;54.346;18.562;2023-01-29T05:47:12;100659.58;;;0.37;100.00
57024;BME280;42916;54.346;18.562;2023-01-29T05:49:39;100659.45;;;0.37;100.00
57024;BME280;42916;54.346;18.562;2023-01-29T05:52:06;100653.11;;;0.38;100.00
57024;BME280;42916;54.346;18.562;2023-01-29T05:54:32;100656.73;;;0.39;100.00
57024;BME280;42916;54.346;18.562;2023-01-29T05:56:59;100654.66;;;0.36;100.00
57024;BME280;42916;54.346;18.562;2023-01-29T05:59:26;100661.00;;;0.34;100.00
57024;BME280;42916;54.346;18.562;2023-01-29T06:01:53;100659.34;;;0.33;100.00
57024;BME280;42916;54.346;18.562;2023-01-29T06:04:19;100661.70;;;0.36;100.00
57024;BME280;42916;54.346;18.562;2023-01-29T06:06:46;100659.91;;;0.38;100.00
57024;BME280;42916;54.346;18.562;2023-01-29T06:09:13;100660.90;;;0.40;100.00
57024;BME280;42916;54.346;18.562;2023-01-29T06:11:40;100656.73;;;0.43;100.00
57024;BME280;42916;54.346;18.562;2023-01-29T06:14:06;100656.65;;;0.46;100.00
57024;BME280;42916;54.346;18.562;2023-01-29T06:16:33;100657.77;;;0.48;100.00
57024;BME280;42916;54.346;18.562;2023-01-29T06:19:00;100658.77;;;0.50;100.00
57024;BME280;42916;54.346;18.562;2023-01-29T06:21:27;100657.21;;;0.53;100.00
57024;BME280;42916;54.346;18.562;2023-01-29T06:23:54;100658.70;;;0.55;100.00
57024;BME280;42916;54.346;18.562;2023-01-29T06:26:21;100661.04;;;0.58;100.00
57024;BME280;42916;54.346;18.562;2023-01-29T06:28:48;100661.78;;;0.61;100.00
57024;BME280;42916;54.346;18.562;2023-01-29T06:31:15;100657.63;;;0.64;100.00
57024;BME280;42916;54.346;18.562;2023-01-29T06:33:42;100664.48;;;0.68;100.00
57024;BME280;42916;54.346;18.562;2023-01-29T06:36:08;100662.09;;;0.70;100.00
57024;BME280;42916;54.346;18.562;2023-01-29T06:38:35;100654.86;;;0.72;100.00
57024;BME280;42916;54.346;18.562;2023-01-29T06:41:15;100653.80;;;0.76;100.00
57024;BME280;42916;54.346;18.562;2023-01-29T06:43:45;100651.38;;;0.80;100.00
57024;BME280;42916;54.346;18.562;2023-01-29T06:46:13;100651.17;;;0.83;100.00
57024;BME280;42916;54.346;18.562;2023-01-29T06:48:40;100652.86;;;0.86;100.00
57024;BME280;42916;54.346;18.562;2023-01-29T06:51:08;100647.55;;;0.89;100.00
57024;BME280;42916;54.346;18.562;2023-01-29T06:53:37;100650.47;;;0.88;100.00
57024;BME280;42916;54.346;18.562;2023-01-29T06:56:05;100643.27;;;0.89;100.00
57024;BME280;42916;54.346;18.562;2023-01-29T06:58:32;100641.07;;;0.91;100.00
57024;BME280;42916;54.346;18.562;2023-01-29T07:01:03;100637.35;;;0.93;100.00
57024;BME280;42916;54.346;18.562;2023-01-29T07:03:31;100633.86;;;0.97;100.00
57024;BME280;42916;54.346;18.562;2023-01-29T07:05:58;100635.48;;;1.02;100.00
57024;BME280;42916;54.346;18.562;2023-01-29T07:08:25;100630.71;;;1.05;100.00
57024;BME280;42916;54.346;18.562;2023-01-29T07:10:51;100634.64;;;1.11;100.00
57024;BME280;42916;54.346;18.562;2023-01-29T07:13:18;100633.98;;;1.16;100.00
57024;BME280;42916;54.346;18.562;2023-01-29T07:15:45;100627.68;;;1.19;100.00
57024;BME280;42916;54.346;18.562;2023-01-29T07:18:12;100627.05;;;1.21;100.00
57024;BME280;42916;54.346;18.562;2023-01-29T07:20:40;100627.27;;;1.25;100.00
57024;BME280;42916;54.346;18.562;2023-01-29T07:23:12;100629.78;;;1.29;100.00
57024;BME280;42916;54.346;18.562;2023-01-29T07:25:39;100624.51;;;1.30;100.00
57024;BME280;42916;54.346;18.562;2023-01-29T07:28:06;100622.36;;;1.33;100.00
57024;BME280;42916;54.346;18.562;2023-01-29T07:30:33;100620.39;;;1.33;100.00
57024;BME280;42916;54.346;18.562;2023-01-29T07:33:02;100622.08;;;1.33;100.00
57024;BME280;42916;54.346;18.562;2023-01-29T07:35:29;100618.94;;;1.33;100.00
57024;BME280;42916;54.346;18.562;2023-01-29T07:37:56;100610.71;;;1.35;100.00
57024;BME280;42916;54.346;18.562;2023-01-29T07:40:23;100602.88;;;1.38;100.00
57024;BME280;42916;54.346;18.562;2023-01-29T07:42:50;100606.31;;;1.40;100.00
57024;BME280;42916;54.346;18.562;2023-01-29T07:45:17;100598.33;;;1.44;100.00
57024;BME280;42916;54.346;18.562;2023-01-29T07:47:44;100594.55;;;1.47;100.00
57024;BME280;42916;54.346;18.562;2023-01-29T07:50:11;100594.44;;;1.48;100.00
57024;BME280;42916;54.346;18.562;2023-01-29T07:52:37;100592.76;;;1.48;100.00
57024;BME280;42916;54.346;18.562;2023-01-29T07:55:04;100592.94;;;1.50;100.00
57024;BME280;42916;54.346;18.562;2023-01-29T07:57:31;100598.39;;;1.51;100.00
57024;BME280;42916;54.346;18.562;2023-01-29T07:59:58;100595.67;;;1.53;100.00
57024;BME280;42916;54.346;18.562;2023-01-29T08:02:25;100599.80;;;1.57;100.00
57024;BME280;42916;54.346;18.562;2023-01-29T08:04:51;100595.98;;;1.61;100.00
57024;BME280;42916;54.346;18.562;2023-01-29T08:07:18;100597.70;;;1.65;100.00
57024;BME280;42916;54.346;18.562;2023-01-29T08:09:45;100593.90;;;1.68;100.00
57024;BME280;42916;54.346;18.562;2023-01-29T08:12:12;100591.70;;;1.71;100.00
57024;BME280;42916;54.346;18.562;2023-01-29T08:14:39;100589.91;;;1.76;100.00
57024;BME280;42916;54.346;18.562;2023-01-29T08:17:06;100587.39;;;1.74;100.00
57024;BME280;42916;54.346;18.562;2023-01-29T08:19:33;100583.86;;;1.73;100.00
57024;BME280;42916;54.346;18.562;2023-01-29T08:22:00;100581.71;;;1.73;100.00
57024;BME280;42916;54.346;18.562;2023-01-29T08:24:26;100580.67;;;1.74;100.00
57024;BME280;42916;54.346;18.562;2023-01-29T08:26:53;100582.02;;;1.73;100.00
57024;BME280;42916;54.346;18.562;2023-01-29T08:29:20;100584.84;;;1.74;100.00
57024;BME280;42916;54.346;18.562;2023-01-29T08:31:47;100587.23;;;1.79;100.00
57024;BME280;42916;54.346;18.562;2023-01-29T08:34:14;100585.11;;;1.82;100.00
57024;BME280;42916;54.346;18.562;2023-01-29T08:36:41;100584.38;;;1.87;100.00
57024;BME280;42916;54.346;18.562;2023-01-29T08:39:08;100582.01;;;1.92;100.00
57024;BME280;42916;54.346;18.562;2023-01-29T08:41:34;100574.13;;;1.96;100.00
57024;BME280;42916;54.346;18.562;2023-01-29T08:44:01;100574.15;;;2.00;100.00
57024;BME280;42916;54.346;18.562;2023-01-29T08:46:30;100578.91;;;2.02;100.00
57024;BME280;42916;54.346;18.562;2023-01-29T08:48:57;100578.12;;;2.07;100.00
57024;BME280;42916;54.346;18.562;2023-01-29T08:51:24;100581.02;;;2.11;100.00
57024;BME280;42916;54.346;18.562;2023-01-29T08:53:52;100577.63;;;2.12;100.00
57024;BME280;42916;54.346;18.562;2023-01-29T08:56:19;100571.75;;;2.14;100.00
57024;BME280;42916;54.346;18.562;2023-01-29T08:58:46;100573.56;;;2.15;100.00
57024;BME280;42916;54.346;18.562;2023-01-29T09:01:13;100571.73;;;2.14;100.00
57024;BME280;42916;54.346;18.562;2023-01-29T09:03:40;100568.54;;;2.12;100.00
57024;BME280;42916;54.346;18.562;2023-01-29T09:06:10;100561.56;;;2.13;100.00
57024;BME280;42916;54.346;18.562;2023-01-29T09:08:38;100559.34;;;2.13;100.00
57024;BME280;42916;54.346;18.562;2023-01-29T09:11:06;100557.02;;;2.12;100.00
57024;BME280;42916;54.346;18.562;2023-01-29T09:13:33;100556.13;;;2.14;100.00
57024;BME280;42916;54.346;18.562;2023-01-29T09:16:01;100550.20;;;2.17;100.00
57024;BME280;42916;54.346;18.562;2023-01-29T09:18:29;100551.22;;;2.19;100.00
57024;BME280;42916;54.346;18.562;2023-01-29T09:20:56;100548.58;;;2.21;100.00
57024;BME280;42916;54.346;18.562;2023-01-29T09:23:23;100553.48;;;2.25;100.00
57024;BME280;42916;54.346;18.562;2023-01-29T09:25:50;100554.77;;;2.27;100.00
57024;BME280;42916;54.346;18.562;2023-01-29T09:28:17;100557.95;;;2.29;100.00
57024;BME280;42916;54.346;18.562;2023-01-29T09:30:44;100560.55;;;2.32;100.00
57024;BME280;42916;54.346;18.562;2023-01-29T09:33:11;100557.33;;;2.27;100.00
57024;BME280;42916;54.346;18.562;2023-01-29T09:35:43;100550.91;;;2.24;100.00
57024;BME280;42916;54.346;18.562;2023-01-29T09:38:12;100558.69;;;2.20;100.00
57024;BME280;42916;54.346;18.562;2023-01-29T09:40:50;100552.41;;;2.18;100.00
57024;BME280;42916;54.346;18.562;2023-01-29T09:46:22;100551.85;;;2.17;100.00
57024;BME280;42916;54.346;18.562;2023-01-29T09:49:23;100548.11;;;2.14;100.00
57024;BME280;42916;54.346;18.562;2023-01-29T09:51:49;100544.17;;;2.11;100.00
57024;BME280;42916;54.346;18.562;2023-01-29T09:54:24;100528.81;;;2.14;100.00
57024;BME280;42916;54.346;18.562;2023-01-29T09:56:55;100532.68;;;2.15;100.00
57024;BME280;42916;54.346;18.562;2023-01-29T09:59:25;100540.27;;;2.15;100.00
57024;BME280;42916;54.346;18.562;2023-01-29T10:02:05;100533.30;;;2.13;100.00
57024;BME280;42916;54.346;18.562;2023-01-29T10:05:15;100538.58;;;2.13;100.00
57024;BME280;42916;54.346;18.562;2023-01-29T10:07:56;100528.73;;;2.11;100.00
57024;BME280;42916;54.346;18.562;2023-01-29T10:11:18;100528.86;;;2.12;100.00
57024;BME280;42916;54.346;18.562;2023-01-29T10:13:56;100524.87;;;2.13;100.00
57024;BME280;42916;54.346;18.562;2023-01-29T10:16:53;100526.00;;;2.14;100.00
57024;BME280;42916;54.346;18.562;2023-01-29T10:24:36;100519.34;;;2.13;100.00
57024;BME280;42916;54.346;18.562;2023-01-29T10:27:13;100514.19;;;2.14;100.00
57024;BME280;42916;54.346;18.562;2023-01-29T10:29:42;100516.52;;;2.17;100.00
57024;BME280;42916;54.346;18.562;2023-01-29T10:32:28;100509.52;;;2.20;100.00
57024;BME280;42916;54.346;18.562;2023-01-29T10:35:02;100497.23;;;2.18;100.00
57024;BME280;42916;54.346;18.562;2023-01-29T10:37:39;100495.41;;;2.17;100.00
57024;BME280;42916;54.346;18.562;2023-01-29T10:43:07;100486.52;;;2.31;100.00
57024;BME280;42916;54.346;18.562;2023-01-29T10:53:46;100478.56;;;2.49;100.00
57024;BME280;42916;54.346;18.562;2023-01-29T11:01:41;100461.89;;;2.66;100.00
57024;BME280;42916;54.346;18.562;2023-01-29T11:04:09;100456.89;;;2.69;100.00
57024;BME280;42916;54.346;18.562;2023-01-29T11:06:37;100454.16;;;2.69;100.00
57024;BME280;42916;54.346;18.562;2023-01-29T11:11:53;100450.69;;;2.78;100.00
57024;BME280;42916;54.346;18.562;2023-01-29T11:14:30;100448.70;;;2.79;100.00
57024;BME280;42916;54.346;18.562;2023-01-29T11:16:58;100435.08;;;2.82;100.00
57024;BME280;42916;54.346;18.562;2023-01-29T11:19:37;100424.61;;;2.84;100.00
57024;BME280;42916;54.346;18.562;2023-01-29T11:22:18;100428.67;;;2.86;100.00
57024;BME280;42916;54.346;18.562;2023-01-29T11:25:09;100415.98;;;2.88;100.00
57024;BME280;42916;54.346;18.562;2023-01-29T11:28:01;100413.91;;;2.92;100.00
57024;BME280;42916;54.346;18.562;2023-01-29T11:30:37;100404.95;;;2.94;100.00
57024;BME280;42916;54.346;18.562;2023-01-29T11:33:15;100407.73;;;2.91;100.00
57024;BME280;42916;54.346;18.562;2023-01-29T11:35:44;100413.15;;;2.93;100.00
57024;BME280;42916;54.346;18.562;2023-01-29T11:40:41;100408.76;;;2.91;100.00
57024;BME280;42916;54.346;18.562;2023-01-29T11:43:27;100401.52;;;2.88;100.00
57024;BME280;42916;54.346;18.562;2023-01-29T11:45:59;100404.94;;;2.85;100.00
57024;BME280;42916;54.346;18.562;2023-01-29T11:48:44;100405.60;;;2.84;100.00
57024;BME280;42916;54.346;18.562;2023-01-29T11:51:22;100409.99;;;2.85;100.00
57024;BME280;42916;54.346;18.562;2023-01-29T11:53:54;100402.16;;;2.80;100.00
57024;BME280;42916;54.346;18.562;2023-01-29T11:58:49;100401.41;;;2.80;100.00
57024;BME280;42916;54.346;18.562;2023-01-29T12:01:32;100394.44;;;2.83;100.00
57024;BME280;42916;54.346;18.562;2023-01-29T12:04:03;100394.98;;;2.83;100.00
57024;BME280;42916;54.346;18.562;2023-01-29T12:06:41;100397.70;;;2.86;100.00
57024;BME280;42916;54.346;18.562;2023-01-29T12:09:14;100401.39;;;2.90;100.00
57024;BME280;42916;54.346;18.562;2023-01-29T12:11:42;100397.72;;;2.93;100.00
57024;BME280;42916;54.346;18.562;2023-01-29T12:19:50;100383.91;;;3.00;100.00
57024;BME280;42916;54.346;18.562;2023-01-29T12:28:18;100358.56;;;2.90;100.00
57024;BME280;42916;54.346;18.562;2023-01-29T12:34:04;100349.89;;;2.83;100.00
57024;BME280;42916;54.346;18.562;2023-01-29T12:36:37;100339.39;;;2.80;100.00
57024;BME280;42916;54.346;18.562;2023-01-29T12:39:10;100331.73;;;2.74;100.00
57024;BME280;42916;54.346;18.562;2023-01-29T12:41:44;100328.76;;;2.71;100.00
57024;BME280;42916;54.346;18.562;2023-01-29T12:44:18;100321.11;;;2.69;100.00
57024;BME280;42916;54.346;18.562;2023-01-29T12:46:50;100310.91;;;2.69;100.00
57024;BME280;42916;54.346;18.562;2023-01-29T12:49:22;100310.98;;;2.71;100.00
57024;BME280;42916;54.346;18.562;2023-01-29T12:52:11;100305.89;;;2.75;100.00
57024;BME280;42916;54.346;18.562;2023-01-29T12:54:44;100305.20;;;2.81;100.00
57024;BME280;42916;54.346;18.562;2023-01-29T12:57:27;100299.54;;;2.86;100.00
57024;BME280;42916;54.346;18.562;2023-01-29T13:00:02;100295.73;;;2.89;100.00
57024;BME280;42916;54.346;18.562;2023-01-29T13:02:54;100294.17;;;2.92;100.00
57024;BME280;42916;54.346;18.562;2023-01-29T13:05:28;100284.33;;;2.95;100.00
57024;BME280;42916;54.346;18.562;2023-01-29T13:08:06;100279.70;;;2.96;100.00
57024;BME280;42916;54.346;18.562;2023-01-29T13:10:42;100275.73;;;2.95;100.00
57024;BME280;42916;54.346;18.562;2023-01-29T13:13:33;100277.59;;;2.90;100.00
57024;BME280;42916;54.346;18.562;2023-01-29T13:16:05;100278.88;;;2.85;100.00
57024;BME280;42916;54.346;18.562;2023-01-29T13:21:16;100279.22;;;2.76;100.00
57024;BME280;42916;54.346;18.562;2023-01-29T13:23:46;100281.48;;;2.69;100.00
57024;BME280;42916;54.346;18.562;2023-01-29T13:26:20;100272.92;;;2.62;100.00
57024;BME280;42916;54.346;18.562;2023-01-29T13:28:48;100269.78;;;2.56;100.00
57024;BME280;42916;54.346;18.562;2023-01-29T13:31:37;100269.70;;;2.54;100.00
57024;BME280;42916;54.346;18.562;2023-01-29T13:34:21;100273.80;;;2.52;100.00
57024;BME280;42916;54.346;18.562;2023-01-29T13:36:51;100267.86;;;2.51;100.00
57024;BME280;42916;54.346;18.562;2023-01-29T13:39:31;100263.91;;;2.48;100.00
57024;BME280;42916;54.346;18.562;2023-01-29T13:42:02;100265.60;;;2.45;100.00
57024;BME280;42916;54.346;18.562;2023-01-29T13:44:40;100262.88;;;2.44;100.00
57024;BME280;42916;54.346;18.562;2023-01-29T13:47:09;100256.85;;;2.46;100.00
57024;BME280;42916;54.346;18.562;2023-01-29T13:49:46;100256.35;;;2.47;100.00
57024;BME280;42916;54.346;18.562;2023-01-29T14:05:39;100273.61;;;2.41;100.00
57024;BME280;42916;54.346;18.562;2023-01-29T14:10:41;100275.71;;;2.36;100.00
57024;BME280;42916;54.346;18.562;2023-01-29T14:16:25;100268.61;;;2.33;100.00
57024;BME280;42916;54.346;18.562;2023-01-29T14:18:33;100266.14;;;2.33;100.00
57024;BME280;42916;54.346;18.562;2023-01-29T14:21:04;100272.33;;;2.34;100.00
57024;BME280;42916;54.346;18.562;2023-01-29T14:23:41;100270.41;;;2.32;100.00
57024;BME280;42916;54.346;18.562;2023-01-29T14:29:22;100277.14;;;2.28;100.00
57024;BME280;42916;54.346;18.562;2023-01-29T14:31:57;100273.67;;;2.25;100.00
57024;BME280;42916;54.346;18.562;2023-01-29T14:34:41;100269.58;;;2.25;100.00
57024;BME280;42916;54.346;18.562;2023-01-29T14:42:37;100262.34;;;2.21;100.00
57024;BME280;42916;54.346;18.562;2023-01-29T14:45:28;100256.88;;;2.20;100.00
57024;BME280;42916;54.346;18.562;2023-01-29T14:47:59;100262.88;;;2.21;100.00
57024;BME280;42916;54.346;18.562;2023-01-29T14:53:23;100256.21;;;2.24;100.00
57024;BME280;42916;54.346;18.562;2023-01-29T14:55:54;100257.35;;;2.23;100.00
57024;BME280;42916;54.346;18.562;2023-01-29T15:00:54;100248.44;;;2.25;100.00
57024;BME280;42916;54.346;18.562;2023-01-29T15:06:06;100240.92;;;2.29;100.00
57024;BME280;42916;54.346;18.562;2023-01-29T15:08:43;100237.79;;;2.26;100.00
57024;BME280;42916;54.346;18.562;2023-01-29T15:11:39;100242.00;;;2.23;100.00
57024;BME280;42916;54.346;18.562;2023-01-29T15:14:27;100235.16;;;2.19;100.00
57024;BME280;42916;54.346;18.562;2023-01-29T15:19:36;100219.85;;;2.13;100.00
57024;BME280;42916;54.346;18.562;2023-01-29T15:22:12;100214.64;;;2.14;100.00
57024;BME280;42916;54.346;18.562;2023-01-29T15:24:42;100205.28;;;2.14;100.00
57024;BME280;42916;54.346;18.562;2023-01-29T15:27:16;100210.73;;;2.12;100.00
57024;BME280;42916;54.346;18.562;2023-01-29T15:29:52;100208.16;;;2.08;100.00